Terminal Aerodrome Forecast
Issued by NWS Portland, OR

Home | Current Version | Previous Version | Text Only | Print | Product List | Glossary On
Versions: 1 2 3 4 5 6 7 8 9 10 11 12 13 14 15 16 17 18 19 20 21 22 23 24
000
FTUS46 KPQR 072330
TAFTTD
TAF
KTTD 072330Z 0800/0824 VRB04KT P6SM FEW050 SCT250
     FM081200 VRB03KT P6SM BKN015 BKN250
     FM081700 VRB03KT P6SM SCT015 SCT250
     FM082200 26005KT P6SM SCT050 SCT250=

USA.gov is the U.S. government's official web portal to all federal, state and local government web resources and services.